sensor_id;sensor_type;location;lat;lon;timestamp;P1;durP1;ratioP1;P2;durP2;ratioP2
75737;SDS011;64356;45.638;13.764;2023-03-30T00:00:58;3.05;;;1.73;;
75737;SDS011;64356;45.638;13.764;2023-03-30T00:03:24;3.70;;;1.90;;
75737;SDS011;64356;45.638;13.764;2023-03-30T00:05:51;4.32;;;1.60;;
75737;SDS011;64356;45.638;13.764;2023-03-30T00:08:21;7.95;;;2.42;;
75737;SDS011;64356;45.638;13.764;2023-03-30T00:10:52;5.40;;;2.25;;
75737;SDS011;64356;45.638;13.764;2023-03-30T00:13:39;5.95;;;1.95;;
75737;SDS011;64356;45.638;13.764;2023-03-30T00:16:06;3.88;;;2.00;;
75737;SDS011;64356;45.638;13.764;2023-03-30T00:18:33;3.15;;;1.67;;
75737;SDS011;64356;45.638;13.764;2023-03-30T00:21:00;2.38;;;1.95;;
75737;SDS011;64356;45.638;13.764;2023-03-30T00:23:27;2.78;;;1.50;;
75737;SDS011;64356;45.638;13.764;2023-03-30T00:25:53;2.88;;;1.83;;
75737;SDS011;64356;45.638;13.764;2023-03-30T00:28:19;2.08;;;1.58;;
75737;SDS011;64356;45.638;13.764;2023-03-30T00:30:45;2.95;;;1.60;;
75737;SDS011;64356;45.638;13.764;2023-03-30T00:33:12;3.42;;;1.77;;
75737;SDS011;64356;45.638;13.764;2023-03-30T00:35:38;6.30;;;2.10;;
75737;SDS011;64356;45.638;13.764;2023-03-30T00:38:04;1.90;;;1.40;;
75737;SDS011;64356;45.638;13.764;2023-03-30T00:40:30;4.07;;;1.90;;
75737;SDS011;64356;45.638;13.764;2023-03-30T00:43:02;2.20;;;1.40;;
75737;SDS011;64356;45.638;13.764;2023-03-30T00:45:35;4.03;;;2.00;;
75737;SDS011;64356;45.638;13.764;2023-03-30T00:48:08;1.30;;;1.20;;
75737;SDS011;64356;45.638;13.764;2023-03-30T00:53:22;2.88;;;1.65;;
75737;SDS011;64356;45.638;13.764;2023-03-30T00:55:51;3.25;;;1.98;;
75737;SDS011;64356;45.638;13.764;2023-03-30T00:58:18;3.28;;;1.60;;
75737;SDS011;64356;45.638;13.764;2023-03-30T01:00:45;2.90;;;2.00;;
75737;SDS011;64356;45.638;13.764;2023-03-30T01:03:22;2.20;;;1.50;;
75737;SDS011;64356;45.638;13.764;2023-03-30T01:05:51;3.05;;;1.90;;
75737;SDS011;64356;45.638;13.764;2023-03-30T01:08:19;4.88;;;1.80;;
75737;SDS011;64356;45.638;13.764;2023-03-30T01:10:48;3.45;;;1.55;;
75737;SDS011;64356;45.638;13.764;2023-03-30T01:13:15;1.98;;;1.35;;
75737;SDS011;64356;45.638;13.764;2023-03-30T01:41:15;3.08;;;1.60;;
75737;SDS011;64356;45.638;13.764;2023-03-30T01:46:40;2.00;;;1.45;;
75737;SDS011;64356;45.638;13.764;2023-03-30T01:49:13;4.85;;;2.20;;
75737;SDS011;64356;45.638;13.764;2023-03-30T01:51:47;7.03;;;1.80;;
75737;SDS011;64356;45.638;13.764;2023-03-30T01:54:21;1.85;;;1.50;;
75737;SDS011;64356;45.638;13.764;2023-03-30T01:59:25;2.03;;;1.50;;
75737;SDS011;64356;45.638;13.764;2023-03-30T02:01:56;1.60;;;1.50;;
75737;SDS011;64356;45.638;13.764;2023-03-30T02:04:28;2.28;;;1.38;;
75737;SDS011;64356;45.638;13.764;2023-03-30T02:06:59;3.23;;;1.60;;
75737;SDS011;64356;45.638;13.764;2023-03-30T02:09:28;3.70;;;2.00;;
75737;SDS011;64356;45.638;13.764;2023-03-30T02:11:55;2.13;;;1.52;;
75737;SDS011;64356;45.638;13.764;2023-03-30T02:14:23;2.97;;;1.58;;
75737;SDS011;64356;45.638;13.764;2023-03-30T02:16:57;2.83;;;1.60;;
75737;SDS011;64356;45.638;13.764;2023-03-30T02:19:27;3.30;;;2.03;;
75737;SDS011;64356;45.638;13.764;2023-03-30T02:21:54;3.17;;;1.70;;
75737;SDS011;64356;45.638;13.764;2023-03-30T02:24:21;1.85;;;1.60;;
75737;SDS011;64356;45.638;13.764;2023-03-30T02:26:51;3.42;;;1.20;;
75737;SDS011;64356;45.638;13.764;2023-03-30T02:29:19;1.85;;;1.10;;
75737;SDS011;64356;45.638;13.764;2023-03-30T02:31:47;1.88;;;1.48;;
75737;SDS011;64356;45.638;13.764;2023-03-30T02:34:30;3.90;;;1.50;;
75737;SDS011;64356;45.638;13.764;2023-03-30T02:45:19;5.10;;;1.83;;
75737;SDS011;64356;45.638;13.764;2023-03-30T02:48:02;1.85;;;1.40;;
75737;SDS011;64356;45.638;13.764;2023-03-30T02:53:44;2.70;;;1.60;;
75737;SDS011;64356;45.638;13.764;2023-03-30T02:56:26;3.00;;;1.48;;
75737;SDS011;64356;45.638;13.764;2023-03-30T02:59:09;4.93;;;2.20;;
75737;SDS011;64356;45.638;13.764;2023-03-30T03:04:08;3.03;;;1.48;;
75737;SDS011;64356;45.638;13.764;2023-03-30T03:06:36;2.50;;;1.55;;
75737;SDS011;64356;45.638;13.764;2023-03-30T03:09:03;2.65;;;1.50;;
75737;SDS011;64356;45.638;13.764;2023-03-30T03:11:29;3.17;;;1.60;;
75737;SDS011;64356;45.638;13.764;2023-03-30T03:13:55;1.73;;;1.40;;
75737;SDS011;64356;45.638;13.764;2023-03-30T03:16:21;2.03;;;1.40;;
75737;SDS011;64356;45.638;13.764;2023-03-30T03:18:47;2.95;;;2.00;;
75737;SDS011;64356;45.638;13.764;2023-03-30T03:21:13;3.05;;;1.92;;
75737;SDS011;64356;45.638;13.764;2023-03-30T03:23:40;1.55;;;1.42;;
75737;SDS011;64356;45.638;13.764;2023-03-30T03:26:06;2.85;;;1.70;;
75737;SDS011;64356;45.638;13.764;2023-03-30T03:28:33;2.08;;;1.48;;
75737;SDS011;64356;45.638;13.764;2023-03-30T03:31:00;2.30;;;1.50;;
75737;SDS011;64356;45.638;13.764;2023-03-30T03:33:26;2.45;;;1.42;;
75737;SDS011;64356;45.638;13.764;2023-03-30T03:35:53;3.88;;;1.52;;
75737;SDS011;64356;45.638;13.764;2023-03-30T03:38:19;2.10;;;1.50;;
75737;SDS011;64356;45.638;13.764;2023-03-30T03:40:49;2.88;;;1.65;;
75737;SDS011;64356;45.638;13.764;2023-03-30T03:43:16;2.15;;;1.40;;
75737;SDS011;64356;45.638;13.764;2023-03-30T03:45:43;2.30;;;1.80;;
75737;SDS011;64356;45.638;13.764;2023-03-30T03:48:10;5.65;;;1.67;;
75737;SDS011;64356;45.638;13.764;2023-03-30T03:50:36;1.80;;;1.30;;
75737;SDS011;64356;45.638;13.764;2023-03-30T03:53:02;1.90;;;1.40;;
75737;SDS011;64356;45.638;13.764;2023-03-30T03:55:28;2.08;;;1.65;;
75737;SDS011;64356;45.638;13.764;2023-03-30T03:57:54;4.47;;;1.52;;
75737;SDS011;64356;45.638;13.764;2023-03-30T04:00:20;3.38;;;1.30;;
75737;SDS011;64356;45.638;13.764;2023-03-30T04:02:47;2.58;;;1.45;;
75737;SDS011;64356;45.638;13.764;2023-03-30T04:05:13;2.20;;;1.50;;
75737;SDS011;64356;45.638;13.764;2023-03-30T04:07:38;1.70;;;1.40;;
75737;SDS011;64356;45.638;13.764;2023-03-30T04:10:05;2.58;;;1.67;;
75737;SDS011;64356;45.638;13.764;2023-03-30T04:12:31;2.75;;;1.70;;
75737;SDS011;64356;45.638;13.764;2023-03-30T04:14:57;2.90;;;1.60;;
75737;SDS011;64356;45.638;13.764;2023-03-30T04:17:23;2.13;;;1.40;;
75737;SDS011;64356;45.638;13.764;2023-03-30T04:19:50;2.45;;;1.35;;
75737;SDS011;64356;45.638;13.764;2023-03-30T04:22:21;3.47;;;1.50;;
75737;SDS011;64356;45.638;13.764;2023-03-30T04:24:52;1.52;;;1.40;;
75737;SDS011;64356;45.638;13.764;2023-03-30T04:27:19;3.50;;;1.50;;
75737;SDS011;64356;45.638;13.764;2023-03-30T04:29:46;1.58;;;1.48;;
75737;SDS011;64356;45.638;13.764;2023-03-30T04:32:12;4.82;;;1.60;;
75737;SDS011;64356;45.638;13.764;2023-03-30T04:34:38;2.78;;;1.90;;
75737;SDS011;64356;45.638;13.764;2023-03-30T04:37:09;3.20;;;1.70;;
75737;SDS011;64356;45.638;13.764;2023-03-30T04:39:35;3.25;;;1.48;;
75737;SDS011;64356;45.638;13.764;2023-03-30T04:42:01;3.33;;;1.73;;
75737;SDS011;64356;45.638;13.764;2023-03-30T04:44:28;3.63;;;1.85;;
75737;SDS011;64356;45.638;13.764;2023-03-30T04:46:54;3.35;;;1.67;;
75737;SDS011;64356;45.638;13.764;2023-03-30T04:49:20;3.25;;;1.73;;
75737;SDS011;64356;45.638;13.764;2023-03-30T04:51:46;1.60;;;1.38;;
75737;SDS011;64356;45.638;13.764;2023-03-30T04:54:12;1.80;;;1.50;;
75737;SDS011;64356;45.638;13.764;2023-03-30T04:56:38;3.65;;;1.60;;
75737;SDS011;64356;45.638;13.764;2023-03-30T04:59:04;2.42;;;1.50;;
75737;SDS011;64356;45.638;13.764;2023-03-30T05:01:30;1.45;;;1.30;;
75737;SDS011;64356;45.638;13.764;2023-03-30T05:03:55;2.00;;;1.67;;
75737;SDS011;64356;45.638;13.764;2023-03-30T05:06:21;1.40;;;1.25;;
75737;SDS011;64356;45.638;13.764;2023-03-30T05:08:47;1.67;;;1.50;;
75737;SDS011;64356;45.638;13.764;2023-03-30T05:11:13;2.25;;;1.70;;
75737;SDS011;64356;45.638;13.764;2023-03-30T05:13:38;1.85;;;1.50;;
75737;SDS011;64356;45.638;13.764;2023-03-30T05:16:04;1.42;;;1.33;;
75737;SDS011;64356;45.638;13.764;2023-03-30T05:18:31;2.28;;;1.67;;
75737;SDS011;64356;45.638;13.764;2023-03-30T05:20:57;2.58;;;1.75;;
75737;SDS011;64356;45.638;13.764;2023-03-30T05:23:23;2.97;;;1.40;;
75737;SDS011;64356;45.638;13.764;2023-03-30T05:25:50;3.50;;;1.77;;
75737;SDS011;64356;45.638;13.764;2023-03-30T05:28:16;3.35;;;1.83;;
75737;SDS011;64356;45.638;13.764;2023-03-30T05:30:42;1.73;;;1.52;;
75737;SDS011;64356;45.638;13.764;2023-03-30T05:33:08;2.28;;;1.63;;
75737;SDS011;64356;45.638;13.764;2023-03-30T05:35:37;2.88;;;1.65;;
75737;SDS011;64356;45.638;13.764;2023-03-30T05:38:03;4.18;;;1.55;;
75737;SDS011;64356;45.638;13.764;2023-03-30T05:40:32;1.70;;;1.60;;
75737;SDS011;64356;45.638;13.764;2023-03-30T05:42:57;4.68;;;1.52;;
75737;SDS011;64356;45.638;13.764;2023-03-30T05:45:23;2.38;;;1.50;;
75737;SDS011;64356;45.638;13.764;2023-03-30T05:47:49;3.78;;;1.60;;
75737;SDS011;64356;45.638;13.764;2023-03-30T05:50:16;16.13;;;2.13;;
75737;SDS011;64356;45.638;13.764;2023-03-30T05:52:42;7.60;;;2.05;;
75737;SDS011;64356;45.638;13.764;2023-03-30T05:55:08;27.67;;;2.92;;
75737;SDS011;64356;45.638;13.764;2023-03-30T05:57:33;17.33;;;3.00;;
75737;SDS011;64356;45.638;13.764;2023-03-30T05:59:59;11.55;;;3.10;;
75737;SDS011;64356;45.638;13.764;2023-03-30T06:02:25;8.85;;;2.88;;
75737;SDS011;64356;45.638;13.764;2023-03-30T06:04:51;15.20;;;3.40;;
75737;SDS011;64356;45.638;13.764;2023-03-30T06:07:17;13.38;;;2.58;;
75737;SDS011;64356;45.638;13.764;2023-03-30T06:09:44;11.02;;;2.97;;
75737;SDS011;64356;45.638;13.764;2023-03-30T06:12:10;14.85;;;2.75;;
75737;SDS011;64356;45.638;13.764;2023-03-30T06:14:36;10.27;;;2.65;;
75737;SDS011;64356;45.638;13.764;2023-03-30T06:17:02;10.93;;;2.67;;
75737;SDS011;64356;45.638;13.764;2023-03-30T06:19:27;22.58;;;3.33;;
75737;SDS011;64356;45.638;13.764;2023-03-30T06:21:53;9.13;;;2.53;;
75737;SDS011;64356;45.638;13.764;2023-03-30T06:24:19;10.43;;;2.60;;
75737;SDS011;64356;45.638;13.764;2023-03-30T06:26:45;10.32;;;3.00;;
75737;SDS011;64356;45.638;13.764;2023-03-30T06:29:12;9.18;;;2.70;;
75737;SDS011;64356;45.638;13.764;2023-03-30T06:31:38;8.13;;;2.30;;
75737;SDS011;64356;45.638;13.764;2023-03-30T06:34:04;5.20;;;2.28;;
75737;SDS011;64356;45.638;13.764;2023-03-30T06:36:29;15.85;;;2.85;;
75737;SDS011;64356;45.638;13.764;2023-03-30T06:38:55;8.13;;;2.25;;
75737;SDS011;64356;45.638;13.764;2023-03-30T06:41:21;9.63;;;2.30;;
75737;SDS011;64356;45.638;13.764;2023-03-30T06:43:46;11.65;;;2.00;;
75737;SDS011;64356;45.638;13.764;2023-03-30T06:46:14;9.98;;;2.20;;
75737;SDS011;64356;45.638;13.764;2023-03-30T06:48:39;8.32;;;2.20;;
75737;SDS011;64356;45.638;13.764;2023-03-30T06:51:06;15.90;;;2.25;;
75737;SDS011;64356;45.638;13.764;2023-03-30T06:53:32;10.68;;;1.90;;
75737;SDS011;64356;45.638;13.764;2023-03-30T06:55:58;4.40;;;1.90;;
75737;SDS011;64356;45.638;13.764;2023-03-30T06:58:25;39.17;;;3.15;;
75737;SDS011;64356;45.638;13.764;2023-03-30T07:00:51;24.90;;;2.60;;
75737;SDS011;64356;45.638;13.764;2023-03-30T07:03:17;23.30;;;2.22;;
75737;SDS011;64356;45.638;13.764;2023-03-30T07:05:47;28.67;;;2.60;;
75737;SDS011;64356;45.638;13.764;2023-03-30T07:08:14;12.05;;;2.55;;
75737;SDS011;64356;45.638;13.764;2023-03-30T07:10:40;19.05;;;2.85;;
75737;SDS011;64356;45.638;13.764;2023-03-30T07:13:06;13.57;;;2.30;;
75737;SDS011;64356;45.638;13.764;2023-03-30T07:15:32;6.07;;;2.20;;
75737;SDS011;64356;45.638;13.764;2023-03-30T07:17:58;7.30;;;2.72;;
75737;SDS011;64356;45.638;13.764;2023-03-30T07:20:24;11.00;;;2.40;;
75737;SDS011;64356;45.638;13.764;2023-03-30T07:22:50;12.55;;;3.45;;
75737;SDS011;64356;45.638;13.764;2023-03-30T07:25:16;5.35;;;1.98;;
75737;SDS011;64356;45.638;13.764;2023-03-30T07:27:42;12.43;;;2.30;;
75737;SDS011;64356;45.638;13.764;2023-03-30T07:30:08;13.48;;;2.13;;
75737;SDS011;64356;45.638;13.764;2023-03-30T07:32:35;11.68;;;2.28;;
75737;SDS011;64356;45.638;13.764;2023-03-30T07:35:01;9.10;;;2.30;;
75737;SDS011;64356;45.638;13.764;2023-03-30T07:37:28;9.77;;;2.13;;
75737;SDS011;64356;45.638;13.764;2023-03-30T07:39:54;7.80;;;2.00;;
75737;SDS011;64356;45.638;13.764;2023-03-30T07:42:21;5.82;;;2.20;;
75737;SDS011;64356;45.638;13.764;2023-03-30T07:44:47;8.45;;;1.98;;
75737;SDS011;64356;45.638;13.764;2023-03-30T07:47:13;6.78;;;2.22;;
75737;SDS011;64356;45.638;13.764;2023-03-30T07:49:39;11.13;;;2.50;;
75737;SDS011;64356;45.638;13.764;2023-03-30T07:52:06;8.00;;;1.90;;
75737;SDS011;64356;45.638;13.764;2023-03-30T07:54:32;12.13;;;2.50;;
75737;SDS011;64356;45.638;13.764;2023-03-30T07:56:58;4.35;;;1.80;;
75737;SDS011;64356;45.638;13.764;2023-03-30T07:59:24;30.00;;;2.65;;
75737;SDS011;64356;45.638;13.764;2023-03-30T08:01:50;13.02;;;2.35;;
75737;SDS011;64356;45.638;13.764;2023-03-30T08:04:18;25.23;;;2.38;;
75737;SDS011;64356;45.638;13.764;2023-03-30T08:06:45;23.45;;;2.90;;
75737;SDS011;64356;45.638;13.764;2023-03-30T08:09:11;16.40;;;2.92;;
75737;SDS011;64356;45.638;13.764;2023-03-30T08:11:37;15.23;;;2.53;;
75737;SDS011;64356;45.638;13.764;2023-03-30T08:14:03;28.83;;;3.58;;
75737;SDS011;64356;45.638;13.764;2023-03-30T08:16:30;14.52;;;2.50;;
75737;SDS011;64356;45.638;13.764;2023-03-30T08:18:56;17.38;;;2.63;;
75737;SDS011;64356;45.638;13.764;2023-03-30T08:21:22;14.80;;;2.90;;
75737;SDS011;64356;45.638;13.764;2023-03-30T08:23:50;8.50;;;2.22;;
75737;SDS011;64356;45.638;13.764;2023-03-30T08:26:16;10.77;;;2.47;;
75737;SDS011;64356;45.638;13.764;2023-03-30T08:28:42;16.77;;;2.75;;
75737;SDS011;64356;45.638;13.764;2023-03-30T08:31:07;10.40;;;2.22;;
75737;SDS011;64356;45.638;13.764;2023-03-30T08:33:34;13.02;;;2.50;;
75737;SDS011;64356;45.638;13.764;2023-03-30T08:36:01;12.73;;;1.90;;
75737;SDS011;64356;45.638;13.764;2023-03-30T08:38:27;11.18;;;2.17;;
75737;SDS011;64356;45.638;13.764;2023-03-30T08:40:53;9.35;;;2.25;;
75737;SDS011;64356;45.638;13.764;2023-03-30T08:43:25;9.13;;;2.25;;
75737;SDS011;64356;45.638;13.764;2023-03-30T08:45:53;20.35;;;3.10;;
75737;SDS011;64356;45.638;13.764;2023-03-30T08:48:21;12.88;;;2.50;;
75737;SDS011;64356;45.638;13.764;2023-03-30T08:53:43;15.43;;;3.03;;
75737;SDS011;64356;45.638;13.764;2023-03-30T08:56:17;9.05;;;2.13;;
75737;SDS011;64356;45.638;13.764;2023-03-30T09:06:53;13.98;;;2.58;;
75737;SDS011;64356;45.638;13.764;2023-03-30T09:09:23;23.52;;;3.85;;
75737;SDS011;64356;45.638;13.764;2023-03-30T09:12:02;28.27;;;2.97;;
75737;SDS011;64356;45.638;13.764;2023-03-30T09:14:32;40.78;;;3.58;;
75737;SDS011;64356;45.638;13.764;2023-03-30T09:17:09;50.72;;;4.32;;
75737;SDS011;64356;45.638;13.764;2023-03-30T09:19:46;32.35;;;3.97;;
75737;SDS011;64356;45.638;13.764;2023-03-30T09:22:17;31.83;;;2.90;;
75737;SDS011;64356;45.638;13.764;2023-03-30T09:24:44;32.97;;;3.13;;
75737;SDS011;64356;45.638;13.764;2023-03-30T09:29:38;26.23;;;3.45;;
75737;SDS011;64356;45.638;13.764;2023-03-30T09:32:16;21.48;;;3.17;;
75737;SDS011;64356;45.638;13.764;2023-03-30T09:35:11;20.40;;;2.80;;
75737;SDS011;64356;45.638;13.764;2023-03-30T09:37:40;24.48;;;3.38;;
75737;SDS011;64356;45.638;13.764;2023-03-30T09:42:58;19.02;;;2.40;;
75737;SDS011;64356;45.638;13.764;2023-03-30T09:45:34;13.45;;;2.72;;
75737;SDS011;64356;45.638;13.764;2023-03-30T09:48:07;18.13;;;2.65;;
75737;SDS011;64356;45.638;13.764;2023-03-30T09:50:40;30.05;;;4.05;;
75737;SDS011;64356;45.638;13.764;2023-03-30T09:53:19;14.23;;;2.97;;
75737;SDS011;64356;45.638;13.764;2023-03-30T09:58:57;19.48;;;2.67;;
75737;SDS011;64356;45.638;13.764;2023-03-30T10:01:23;16.13;;;3.80;;
75737;SDS011;64356;45.638;13.764;2023-03-30T10:04:08;23.85;;;3.47;;
75737;SDS011;64356;45.638;13.764;2023-03-30T10:06:43;26.67;;;3.78;;
75737;SDS011;64356;45.638;13.764;2023-03-30T10:09:11;30.50;;;3.25;;
75737;SDS011;64356;45.638;13.764;2023-03-30T10:11:44;22.98;;;3.00;;
75737;SDS011;64356;45.638;13.764;2023-03-30T10:16:50;22.23;;;3.85;;
75737;SDS011;64356;45.638;13.764;2023-03-30T10:19:18;20.98;;;4.28;;
75737;SDS011;64356;45.638;13.764;2023-03-30T10:21:45;22.08;;;2.80;;
75737;SDS011;64356;45.638;13.764;2023-03-30T10:26:52;18.40;;;2.95;;
75737;SDS011;64356;45.638;13.764;2023-03-30T10:29:21;12.23;;;3.40;;
75737;SDS011;64356;45.638;13.764;2023-03-30T10:31:56;13.88;;;3.53;;
75737;SDS011;64356;45.638;13.764;2023-03-30T10:36:57;18.17;;;3.17;;
75737;SDS011;64356;45.638;13.764;2023-03-30T10:39:27;8.52;;;2.90;;
75737;SDS011;64356;45.638;13.764;2023-03-30T10:41:55;18.90;;;3.22;;
75737;SDS011;64356;45.638;13.764;2023-03-30T10:46:51;23.60;;;3.33;;
75737;SDS011;64356;45.638;13.764;2023-03-30T10:52:33;21.05;;;3.42;;
75737;SDS011;64356;45.638;13.764;2023-03-30T11:03:45;17.60;;;3.10;;
75737;SDS011;64356;45.638;13.764;2023-03-30T11:06:20;24.85;;;3.10;;
75737;SDS011;64356;45.638;13.764;2023-03-30T11:09:03;18.00;;;2.97;;
75737;SDS011;64356;45.638;13.764;2023-03-30T11:11:33;59.95;;;3.45;;
75737;SDS011;64356;45.638;13.764;2023-03-30T11:14:06;21.13;;;4.60;;
75737;SDS011;64356;45.638;13.764;2023-03-30T11:19:24;24.40;;;4.72;;
75737;SDS011;64356;45.638;13.764;2023-03-30T11:25:29;14.13;;;4.20;;
75737;SDS011;64356;45.638;13.764;2023-03-30T11:31:02;17.48;;;3.03;;
75737;SDS011;64356;45.638;13.764;2023-03-30T11:33:40;12.52;;;3.20;;
75737;SDS011;64356;45.638;13.764;2023-03-30T11:36:27;12.50;;;2.67;;
75737;SDS011;64356;45.638;13.764;2023-03-30T11:39:02;16.23;;;2.65;;
75737;SDS011;64356;45.638;13.764;2023-03-30T11:41:34;11.88;;;2.72;;
75737;SDS011;64356;45.638;13.764;2023-03-30T11:44:04;10.05;;;2.92;;
75737;SDS011;64356;45.638;13.764;2023-03-30T11:52:24;22.45;;;2.90;;
75737;SDS011;64356;45.638;13.764;2023-03-30T11:57:54;14.23;;;3.13;;
75737;SDS011;64356;45.638;13.764;2023-03-30T12:00:37;17.15;;;3.03;;
75737;SDS011;64356;45.638;13.764;2023-03-30T12:08:59;12.38;;;2.60;;
75737;SDS011;64356;45.638;13.764;2023-03-30T12:11:32;9.77;;;2.72;;
75737;SDS011;64356;45.638;13.764;2023-03-30T12:14:04;13.18;;;2.60;;
75737;SDS011;64356;45.638;13.764;2023-03-30T12:16:58;16.98;;;2.92;;
75737;SDS011;64356;45.638;13.764;2023-03-30T12:19:50;13.25;;;2.95;;
75737;SDS011;64356;45.638;13.764;2023-03-30T12:22:46;10.05;;;2.85;;
75737;SDS011;64356;45.638;13.764;2023-03-30T12:28:22;9.82;;;2.78;;
75737;SDS011;64356;45.638;13.764;2023-03-30T12:30:57;8.15;;;2.30;;
75737;SDS011;64356;45.638;13.764;2023-03-30T12:36:03;8.82;;;2.20;;
75737;SDS011;64356;45.638;13.764;2023-03-30T12:38:50;6.35;;;2.22;;
75737;SDS011;64356;45.638;13.764;2023-03-30T12:41:21;20.20;;;3.63;;
75737;SDS011;64356;45.638;13.764;2023-03-30T12:44:03;11.82;;;2.40;;
75737;SDS011;64356;45.638;13.764;2023-03-30T12:47:01;11.90;;;1.75;;
75737;SDS011;64356;45.638;13.764;2023-03-30T13:01:15;15.10;;;2.95;;
75737;SDS011;64356;45.638;13.764;2023-03-30T13:03:49;7.13;;;2.05;;
75737;SDS011;64356;45.638;13.764;2023-03-30T13:06:21;9.10;;;1.98;;
75737;SDS011;64356;45.638;13.764;2023-03-30T13:08:52;9.98;;;2.20;;
75737;SDS011;64356;45.638;13.764;2023-03-30T13:11:20;8.90;;;1.95;;
75737;SDS011;64356;45.638;13.764;2023-03-30T13:24:42;35.08;;;4.20;;
75737;SDS011;64356;45.638;13.764;2023-03-30T13:29:47;9.57;;;3.10;;
75737;SDS011;64356;45.638;13.764;2023-03-30T13:32:24;13.48;;;3.17;;
75737;SDS011;64356;45.638;13.764;2023-03-30T13:38:04;12.23;;;2.67;;
75737;SDS011;64356;45.638;13.764;2023-03-30T13:40:44;8.68;;;2.65;;
75737;SDS011;64356;45.638;13.764;2023-03-30T13:51:42;7.38;;;2.60;;
75737;SDS011;64356;45.638;13.764;2023-03-30T13:54:28;13.18;;;2.92;;
75737;SDS011;64356;45.638;13.764;2023-03-30T13:57:02;8.05;;;2.08;;
75737;SDS011;64356;45.638;13.764;2023-03-30T13:59:36;6.43;;;1.95;;
75737;SDS011;64356;45.638;13.764;2023-03-30T14:02:06;10.23;;;2.47;;
75737;SDS011;64356;45.638;13.764;2023-03-30T14:04:36;5.73;;;1.83;;
75737;SDS011;64356;45.638;13.764;2023-03-30T14:07:15;13.45;;;1.98;;
75737;SDS011;64356;45.638;13.764;2023-03-30T14:09:43;11.80;;;2.42;;
75737;SDS011;64356;45.638;13.764;2023-03-30T14:12:25;7.28;;;1.52;;
75737;SDS011;64356;45.638;13.764;2023-03-30T14:14:51;10.48;;;1.90;;
75737;SDS011;64356;45.638;13.764;2023-03-30T14:17:21;8.80;;;1.52;;
75737;SDS011;64356;45.638;13.764;2023-03-30T14:22:43;9.07;;;1.92;;
75737;SDS011;64356;45.638;13.764;2023-03-30T14:28:13;12.73;;;2.67;;
75737;SDS011;64356;45.638;13.764;2023-03-30T14:33:30;8.95;;;2.00;;
75737;SDS011;64356;45.638;13.764;2023-03-30T14:35:59;5.95;;;2.28;;
75737;SDS011;64356;45.638;13.764;2023-03-30T14:38:28;8.95;;;2.40;;
75737;SDS011;64356;45.638;13.764;2023-03-30T14:43:57;11.45;;;2.97;;
75737;SDS011;64356;45.638;13.764;2023-03-30T14:46:27;10.55;;;2.92;;
75737;SDS011;64356;45.638;13.764;2023-03-30T14:49:13;12.85;;;1.80;;
75737;SDS011;64356;45.638;13.764;2023-03-30T14:51:48;11.52;;;2.47;;
75737;SDS011;64356;45.638;13.764;2023-03-30T14:54:21;5.70;;;1.77;;
75737;SDS011;64356;45.638;13.764;2023-03-30T14:57:06;9.48;;;2.30;;
75737;SDS011;64356;45.638;13.764;2023-03-30T14:59:33;5.82;;;2.10;;
75737;SDS011;64356;45.638;13.764;2023-03-30T15:02:02;6.25;;;2.00;;
75737;SDS011;64356;45.638;13.764;2023-03-30T15:04:32;15.30;;;2.30;;
75737;SDS011;64356;45.638;13.764;2023-03-30T15:07:01;6.35;;;1.67;;
75737;SDS011;64356;45.638;13.764;2023-03-30T15:09:27;5.40;;;1.90;;
75737;SDS011;64356;45.638;13.764;2023-03-30T15:12:01;6.70;;;1.90;;
75737;SDS011;64356;45.638;13.764;2023-03-30T15:14:31;8.68;;;2.08;;
75737;SDS011;64356;45.638;13.764;2023-03-30T15:17:01;6.57;;;1.88;;
75737;SDS011;64356;45.638;13.764;2023-03-30T15:19:49;9.15;;;1.70;;
75737;SDS011;64356;45.638;13.764;2023-03-30T15:22:27;6.45;;;1.80;;
75737;SDS011;64356;45.638;13.764;2023-03-30T15:24:56;20.33;;;2.85;;
75737;SDS011;64356;45.638;13.764;2023-03-30T15:27:25;12.38;;;2.28;;
75737;SDS011;64356;45.638;13.764;2023-03-30T15:29:53;8.68;;;2.15;;
75737;SDS011;64356;45.638;13.764;2023-03-30T15:32:21;18.05;;;2.25;;
75737;SDS011;64356;45.638;13.764;2023-03-30T15:37:53;20.80;;;2.38;;
75737;SDS011;64356;45.638;13.764;2023-03-30T15:40:30;18.88;;;3.78;;
75737;SDS011;64356;45.638;13.764;2023-03-30T15:45:35;13.80;;;2.95;;
75737;SDS011;64356;45.638;13.764;2023-03-30T15:48:01;15.45;;;2.70;;
75737;SDS011;64356;45.638;13.764;2023-03-30T15:50:27;13.68;;;2.90;;
75737;SDS011;64356;45.638;13.764;2023-03-30T15:52:57;16.42;;;2.17;;
75737;SDS011;64356;45.638;13.764;2023-03-30T15:55:26;8.90;;;2.10;;
75737;SDS011;64356;45.638;13.764;2023-03-30T15:57:54;11.65;;;2.10;;
75737;SDS011;64356;45.638;13.764;2023-03-30T16:00:24;9.98;;;1.80;;
75737;SDS011;64356;45.638;13.764;2023-03-30T16:02:54;9.57;;;1.67;;
75737;SDS011;64356;45.638;13.764;2023-03-30T16:05:24;5.22;;;1.50;;
75737;SDS011;64356;45.638;13.764;2023-03-30T16:07:52;6.72;;;2.78;;
75737;SDS011;64356;45.638;13.764;2023-03-30T16:10:28;11.93;;;2.70;;
75737;SDS011;64356;45.638;13.764;2023-03-30T16:12:56;10.40;;;2.70;;
75737;SDS011;64356;45.638;13.764;2023-03-30T16:15:27;14.77;;;2.22;;
75737;SDS011;64356;45.638;13.764;2023-03-30T16:17:55;4.32;;;1.73;;
75737;SDS011;64356;45.638;13.764;2023-03-30T16:20:25;9.93;;;2.97;;
75737;SDS011;64356;45.638;13.764;2023-03-30T16:22:53;9.35;;;3.08;;
75737;SDS011;64356;45.638;13.764;2023-03-30T16:25:20;11.32;;;2.58;;
75737;SDS011;64356;45.638;13.764;2023-03-30T16:27:48;11.02;;;4.35;;
75737;SDS011;64356;45.638;13.764;2023-03-30T16:32:42;9.07;;;2.45;;
75737;SDS011;64356;45.638;13.764;2023-03-30T16:35:08;11.50;;;2.92;;
75737;SDS011;64356;45.638;13.764;2023-03-30T16:37:35;8.05;;;2.70;;
75737;SDS011;64356;45.638;13.764;2023-03-30T16:40:01;10.27;;;2.75;;
75737;SDS011;64356;45.638;13.764;2023-03-30T16:42:30;9.07;;;2.70;;
75737;SDS011;64356;45.638;13.764;2023-03-30T16:44:56;9.88;;;3.08;;
75737;SDS011;64356;45.638;13.764;2023-03-30T16:47:21;18.45;;;2.70;;
75737;SDS011;64356;45.638;13.764;2023-03-30T16:49:47;9.10;;;2.45;;
75737;SDS011;64356;45.638;13.764;2023-03-30T16:52:12;12.00;;;2.35;;
75737;SDS011;64356;45.638;13.764;2023-03-30T16:54:38;14.45;;;3.15;;
75737;SDS011;64356;45.638;13.764;2023-03-30T16:57:04;8.38;;;2.30;;
75737;SDS011;64356;45.638;13.764;2023-03-30T16:59:30;20.10;;;3.67;;
75737;SDS011;64356;45.638;13.764;2023-03-30T17:01:57;8.43;;;2.65;;
75737;SDS011;64356;45.638;13.764;2023-03-30T17:04:23;15.65;;;2.35;;
75737;SDS011;64356;45.638;13.764;2023-03-30T17:06:49;11.55;;;2.53;;
75737;SDS011;64356;45.638;13.764;2023-03-30T17:09:18;15.75;;;2.50;;
75737;SDS011;64356;45.638;13.764;2023-03-30T17:11:45;13.98;;;2.45;;
75737;SDS011;64356;45.638;13.764;2023-03-30T17:14:13;11.10;;;2.45;;
75737;SDS011;64356;45.638;13.764;2023-03-30T17:16:40;13.82;;;2.72;;
75737;SDS011;64356;45.638;13.764;2023-03-30T17:19:09;8.80;;;2.65;;
75737;SDS011;64356;45.638;13.764;2023-03-30T17:21:36;10.52;;;2.28;;
75737;SDS011;64356;45.638;13.764;2023-03-30T17:24:02;11.95;;;2.53;;
75737;SDS011;64356;45.638;13.764;2023-03-30T17:26:28;11.38;;;2.95;;
75737;SDS011;64356;45.638;13.764;2023-03-30T17:28:53;6.53;;;2.38;;
75737;SDS011;64356;45.638;13.764;2023-03-30T17:31:20;6.63;;;2.42;;
75737;SDS011;64356;45.638;13.764;2023-03-30T17:33:46;5.97;;;2.33;;
75737;SDS011;64356;45.638;13.764;2023-03-30T17:36:13;5.82;;;2.10;;